Time;durP1;ratioP1;P1;durP2;ratioP2;P2;SDS_P1;SDS_P2;PMS_P1;PMS_P2;Temp;Humidity;BMP_temperature;BMP_pressure;BME280_temperature;BME280_humidity;BME280_pressure;Samples;Min_cycle;Max_cycle;Signal;HPM_P1;HPM_P2
2023/08/13 00:00:36;;;;;;;8.13;4.40;;;;;;;;;;5007737;28;20025;-65
2023/08/13 00:03:04;;;;;;;6.38;4.43;;;;;;;;;;5012843;28;20024;-63
2023/08/13 00:05:32;;;;;;;7.68;4.00;;;;;;;;;;5014230;28;20025;-65
2023/08/13 00:07:57;;;;;;;5.85;3.63;;;;;;;;;;5004905;28;20104;-64
2023/08/13 00:10:25;;;;;;;5.30;3.27;;;;;;;;;;5024194;28;20108;-66
2023/08/13 00:12:52;;;;;;;6.68;3.63;;;;;;;;;;5008929;28;20113;-65
2023/08/13 00:15:18;;;;;;;5.38;3.17;;;;;;;;;;5015189;28;20021;-66
2023/08/13 00:17:43;;;;;;;6.38;3.47;;;;;;;;;;5016208;28;20225;-64
2023/08/13 00:20:09;;;;;;;5.17;3.30;;;;;;;;;;5007033;28;20644;-65
2023/08/13 00:22:34;;;;;;;7.82;3.60;;;;;;;;;;5008688;28;20026;-64
2023/08/13 00:24:59;;;;;;;4.57;3.00;;;;;;;;;;5014422;28;20025;-64
2023/08/13 00:27:24;;;;;;;5.30;3.37;;;;;;;;;;5016692;28;20256;-66
2023/08/13 00:29:52;;;;;;;6.63;3.57;;;;;;;;;;5016897;28;20261;-64
2023/08/13 00:32:17;;;;;;;6.18;3.50;;;;;;;;;;5007896;28;20044;-64
2023/08/13 00:34:42;;;;;;;6.17;3.70;;;;;;;;;;5015392;28;20634;-65
2023/08/13 00:37:08;;;;;;;5.90;3.70;;;;;;;;;;5009605;28;20262;-66
2023/08/13 00:39:33;;;;;;;5.70;3.37;;;;;;;;;;5005930;28;20739;-65
2023/08/13 00:41:58;;;;;;;5.73;3.70;;;;;;;;;;5012954;28;20287;-65
2023/08/13 00:44:26;;;;;;;6.70;3.70;;;;;;;;;;5004569;28;20175;-66
2023/08/13 00:46:53;;;;;;;5.78;3.50;;;;;;;;;;5010674;28;20272;-65
2023/08/13 00:49:19;;;;;;;5.78;3.67;;;;;;;;;;5012194;28;20116;-64
2023/08/13 00:51:44;;;;;;;7.18;3.88;;;;;;;;;;5001324;28;20040;-66
2023/08/13 00:54:12;;;;;;;5.63;3.40;;;;;;;;;;5035272;28;20052;-65
2023/08/13 00:56:38;;;;;;;8.18;3.40;;;;;;;;;;5035187;28;20253;-65
2023/08/13 00:59:04;;;;;;;7.15;3.50;;;;;;;;;;5013626;28;20088;-65
2023/08/13 01:01:29;;;;;;;8.80;3.97;;;;;;;;;;5015866;28;20017;-66
2023/08/13 01:03:54;;;;;;;5.80;3.70;;;;;;;;;;5016853;28;20026;-66
2023/08/13 01:06:32;;;;;;;7.67;4.07;;;;;;;;;;5015349;28;20662;-65
2023/08/13 01:08:57;;;;;;;6.60;3.75;;;;;;;;;;5011795;28;20014;-64
2023/08/13 01:11:28;;;;;;;5.50;3.50;;;;;;;;;;5012533;28;20032;-64
2023/08/13 01:14:10;;;;;;;5.32;3.50;;;;;;;;;;5015007;28;20014;-64
2023/08/13 01:16:41;;;;;;;7.00;3.70;;;;;;;;;;5001420;28;20022;-66
2023/08/13 01:19:10;;;;;;;5.75;3.53;;;;;;;;;;5005941;28;20032;-65
2023/08/13 01:21:36;;;;;;;6.88;3.60;;;;;;;;;;5012495;28;20076;-67
2023/08/13 01:24:03;;;;;;;5.97;3.90;;;;;;;;;;5011814;28;20389;-66
2023/08/13 01:26:32;;;;;;;5.05;3.28;;;;;;;;;;5016933;28;20016;-64
2023/08/13 01:29:06;;;;;;;5.18;3.60;;;;;;;;;;5012407;28;20033;-64
2023/08/13 01:31:35;;;;;;;7.03;3.83;;;;;;;;;;5019815;28;20014;-65
2023/08/13 01:34:01;;;;;;;5.15;3.45;;;;;;;;;;5020843;28;20066;-64
2023/08/13 01:36:27;;;;;;;5.45;3.50;;;;;;;;;;5020622;28;20017;-65
2023/08/13 01:38:53;;;;;;;7.50;3.80;;;;;;;;;;5012171;28;20640;-65
2023/08/13 01:41:18;;;;;;;6.35;3.65;;;;;;;;;;5020987;28;20025;-66
2023/08/13 01:43:44;;;;;;;5.50;3.78;;;;;;;;;;5020865;28;20114;-66
2023/08/13 01:46:09;;;;;;;5.63;3.63;;;;;;;;;;5019094;28;20327;-65
2023/08/13 01:48:34;;;;;;;5.47;3.73;;;;;;;;;;5019952;28;20323;-64
2023/08/13 01:50:59;;;;;;;6.67;3.93;;;;;;;;;;5019300;28;20082;-64
2023/08/13 01:53:25;;;;;;;5.47;3.77;;;;;;;;;;5017953;28;21505;-65
2023/08/13 01:55:52;;;;;;;6.00;3.60;;;;;;;;;;5033164;28;20296;-66
2023/08/13 01:58:18;;;;;;;7.07;4.10;;;;;;;;;;5016732;28;20054;-62
2023/08/13 02:00:43;;;;;;;5.68;3.90;;;;;;;;;;5032813;28;20128;-64
2023/08/13 02:03:10;;;;;;;7.07;4.10;;;;;;;;;;5026192;28;20387;-64
2023/08/13 02:05:36;;;;;;;6.75;3.85;;;;;;;;;;5018953;28;20275;-65
2023/08/13 02:08:01;;;;;;;7.82;4.03;;;;;;;;;;5021370;28;20483;-64
2023/08/13 02:10:28;;;;;;;6.60;3.90;;;;;;;;;;5020392;28;20111;-66
2023/08/13 02:12:57;;;;;;;6.00;3.90;;;;;;;;;;5019603;28;20716;-64
2023/08/13 02:15:23;;;;;;;5.72;3.67;;;;;;;;;;5016609;28;20480;-66
2023/08/13 02:17:48;;;;;;;5.73;4.03;;;;;;;;;;5005297;28;20033;-64
2023/08/13 02:20:15;;;;;;;5.80;3.67;;;;;;;;;;5017278;28;20452;-64
2023/08/13 02:22:42;;;;;;;8.23;3.83;;;;;;;;;;5011865;28;20350;-65
2023/08/13 02:25:07;;;;;;;6.87;3.50;;;;;;;;;;5018537;28;20579;-67
2023/08/13 02:27:35;;;;;;;6.05;3.75;;;;;;;;;;5024134;28;20279;-66
2023/08/13 02:30:01;;;;;;;6.30;3.50;;;;;;;;;;5018491;28;20020;-66
2023/08/13 02:32:28;;;;;;;5.72;3.72;;;;;;;;;;5014234;28;20037;-67
2023/08/13 02:34:56;;;;;;;7.22;4.00;;;;;;;;;;5020833;28;20120;-66
2023/08/13 02:37:21;;;;;;;7.55;4.00;;;;;;;;;;5017560;28;20028;-65
2023/08/13 02:39:47;;;;;;;5.13;3.53;;;;;;;;;;5017963;28;20021;-64
2023/08/13 02:42:14;;;;;;;5.90;3.77;;;;;;;;;;5019239;28;20030;-65
2023/08/13 02:44:40;;;;;;;7.75;3.88;;;;;;;;;;5016235;28;20028;-65
2023/08/13 02:47:05;;;;;;;7.07;3.97;;;;;;;;;;5019648;28;20879;-65
2023/08/13 02:49:30;;;;;;;6.67;3.80;;;;;;;;;;5012231;28;20021;-65
2023/08/13 02:51:55;;;;;;;6.63;3.60;;;;;;;;;;5011915;28;20060;-64
2023/08/13 02:54:21;;;;;;;5.80;3.53;;;;;;;;;;5007412;28;20580;-65
2023/08/13 02:56:46;;;;;;;5.23;3.57;;;;;;;;;;5012448;28;20280;-65
2023/08/13 02:59:11;;;;;;;6.20;3.77;;;;;;;;;;5015486;28;20241;-64
2023/08/13 03:01:38;;;;;;;7.47;3.50;;;;;;;;;;5016080;28;20035;-65
2023/08/13 03:04:04;;;;;;;7.13;3.80;;;;;;;;;;5006892;28;20026;-65
2023/08/13 03:06:29;;;;;;;5.93;3.80;;;;;;;;;;5016380;28;20130;-65
2023/08/13 03:08:59;;;;;;;6.35;3.60;;;;;;;;;;5004703;28;20755;-65
2023/08/13 03:11:24;;;;;;;5.93;3.70;;;;;;;;;;5009534;28;20463;-66
2023/08/13 03:13:50;;;;;;;5.80;3.50;;;;;;;;;;5013584;28;20029;-62
2023/08/13 03:16:16;;;;;;;5.18;3.42;;;;;;;;;;5014469;28;20064;-65
2023/08/13 03:18:42;;;;;;;5.53;3.60;;;;;;;;;;5010909;28;20618;-67
2023/08/13 03:21:07;;;;;;;6.25;3.55;;;;;;;;;;5013249;28;20095;-64
2023/08/13 03:23:32;;;;;;;5.60;3.20;;;;;;;;;;5015908;28;20075;-66
2023/08/13 03:25:58;;;;;;;6.73;3.73;;;;;;;;;;5013089;28;20849;-66
2023/08/13 03:28:23;;;;;;;6.47;3.72;;;;;;;;;;5011968;28;20241;-65
2023/08/13 03:30:48;;;;;;;5.30;3.40;;;;;;;;;;5013377;28;20034;-67
2023/08/13 03:33:13;;;;;;;7.43;3.70;;;;;;;;;;5011127;28;20272;-66
2023/08/13 03:35:39;;;;;;;5.63;3.63;;;;;;;;;;5011462;28;20064;-64
2023/08/13 03:38:06;;;;;;;5.78;3.60;;;;;;;;;;5011954;28;20021;-63
2023/08/13 03:40:32;;;;;;;6.63;3.60;;;;;;;;;;5011653;28;20021;-64
2023/08/13 03:43:00;;;;;;;5.80;3.50;;;;;;;;;;5002752;28;20021;-65
2023/08/13 03:45:25;;;;;;;5.95;3.70;;;;;;;;;;5011868;28;20017;-65
2023/08/13 03:47:50;;;;;;;5.63;3.80;;;;;;;;;;5005001;28;20460;-65
2023/08/13 03:50:15;;;;;;;5.17;3.30;;;;;;;;;;5005406;28;20030;-64
2023/08/13 03:52:41;;;;;;;6.03;3.20;;;;;;;;;;5012260;28;20034;-65
2023/08/13 03:55:06;;;;;;;5.37;3.40;;;;;;;;;;5014109;28;20025;-65
2023/08/13 03:57:34;;;;;;;4.93;2.72;;;;;;;;;;5017476;28;20025;-66
2023/08/13 03:59:59;;;;;;;7.63;3.20;;;;;;;;;;5018027;28;20024;-66
2023/08/13 04:02:25;;;;;;;5.13;2.97;;;;;;;;;;5015664;28;20021;-65
2023/08/13 04:04:52;;;;;;;5.18;3.10;;;;;;;;;;5018299;28;20117;-66
2023/08/13 04:07:17;;;;;;;5.95;3.33;;;;;;;;;;5017403;28;20478;-64
2023/08/13 04:09:43;;;;;;;6.88;3.40;;;;;;;;;;5006729;28;20026;-65
2023/08/13 04:12:10;;;;;;;4.93;3.20;;;;;;;;;;5012675;28;20026;-64
2023/08/13 04:14:38;;;;;;;6.32;3.80;;;;;;;;;;5012648;28;20259;-66
2023/08/13 04:17:05;;;;;;;6.32;3.70;;;;;;;;;;5009954;28;20025;-65
2023/08/13 04:19:33;;;;;;;6.22;3.70;;;;;;;;;;5041421;28;20155;-66
2023/08/13 04:22:01;;;;;;;6.72;4.22;;;;;;;;;;5017239;28;20093;-65
2023/08/13 04:24:26;;;;;;;5.65;3.90;;;;;;;;;;5015416;28;20641;-66
2023/08/13 04:26:52;;;;;;;5.20;3.27;;;;;;;;;;5015676;28;20017;-65
2023/08/13 04:29:18;;;;;;;7.55;3.42;;;;;;;;;;5020426;28;20032;-66
2023/08/13 04:31:43;;;;;;;6.90;3.70;;;;;;;;;;5016428;28;20029;-65
2023/08/13 04:34:08;;;;;;;6.47;3.60;;;;;;;;;;5006521;28;20037;-64
2023/08/13 04:36:36;;;;;;;5.67;3.13;;;;;;;;;;5013576;28;20802;-65
2023/08/13 04:39:03;;;;;;;5.93;3.60;;;;;;;;;;5016416;28;20025;-65
2023/08/13 04:41:29;;;;;;;5.53;3.80;;;;;;;;;;5018034;28;20447;-65
2023/08/13 04:43:54;;;;;;;5.50;3.83;;;;;;;;;;5015362;28;20092;-65
2023/08/13 04:46:21;;;;;;;5.53;3.60;;;;;;;;;;5017437;28;20114;-66
2023/08/13 04:48:47;;;;;;;5.95;3.67;;;;;;;;;;5016634;28;20291;-65
2023/08/13 04:51:15;;;;;;;7.05;3.97;;;;;;;;;;5001199;28;20113;-66
2023/08/13 04:53:40;;;;;;;5.18;3.40;;;;;;;;;;5003958;28;20025;-64
2023/08/13 04:56:09;;;;;;;5.18;3.30;;;;;;;;;;5017022;28;20037;-66
2023/08/13 04:58:35;;;;;;;5.72;3.88;;;;;;;;;;5031138;28;20428;-66
2023/08/13 05:01:10;;;;;;;5.70;3.50;;;;;;;;;;5009853;28;20014;-64
2023/08/13 05:03:35;;;;;;;5.97;3.55;;;;;;;;;;5015023;28;20009;-65
2023/08/13 05:06:00;;;;;;;6.65;3.60;;;;;;;;;;5008621;28;20021;-66
2023/08/13 05:08:26;;;;;;;5.40;3.77;;;;;;;;;;5010084;28;20944;-65
2023/08/13 05:10:51;;;;;;;6.30;3.73;;;;;;;;;;5012028;28;20302;-65
2023/08/13 05:13:16;;;;;;;6.75;3.85;;;;;;;;;;5016453;28;20029;-66
2023/08/13 05:15:44;;;;;;;5.43;3.55;;;;;;;;;;5010377;28;20044;-67
2023/08/13 05:18:12;;;;;;;6.15;3.65;;;;;;;;;;5018245;28;20376;-66
2023/08/13 05:20:37;;;;;;;5.47;3.67;;;;;;;;;;5019326;28;20094;-66
2023/08/13 05:23:05;;;;;;;6.60;3.53;;;;;;;;;;5018246;28;20743;-66
2023/08/13 05:25:30;;;;;;;6.28;3.83;;;;;;;;;;5019328;28;20817;-66
2023/08/13 05:27:55;;;;;;;6.10;4.10;;;;;;;;;;5018106;28;20018;-62
2023/08/13 05:30:21;;;;;;;6.37;3.93;;;;;;;;;;5011977;28;20264;-67
2023/08/13 05:32:48;;;;;;;7.80;3.83;;;;;;;;;;5015597;28;20045;-64
2023/08/13 05:35:16;;;;;;;7.00;3.92;;;;;;;;;;5017741;28;20800;-65
2023/08/13 05:37:41;;;;;;;6.22;4.25;;;;;;;;;;5011456;28;20025;-65
2023/08/13 05:40:08;;;;;;;6.13;3.83;;;;;;;;;;5010463;28;20424;-66
2023/08/13 05:42:33;;;;;;;5.15;3.60;;;;;;;;;;5016610;28;20890;-64
2023/08/13 05:44:59;;;;;;;7.07;3.70;;;;;;;;;;5014222;28;20026;-64
2023/08/13 05:47:24;;;;;;;6.13;3.67;;;;;;;;;;5015573;28;20335;-64
2023/08/13 05:49:49;;;;;;;5.77;3.83;;;;;;;;;;5011737;28;20260;-68
2023/08/13 05:52:15;;;;;;;6.43;3.87;;;;;;;;;;5006019;28;20987;-65
2023/08/13 05:54:40;;;;;;;5.28;3.50;;;;;;;;;;5009521;28;20260;-67
2023/08/13 05:57:06;;;;;;;6.27;3.67;;;;;;;;;;5006739;28;20024;-64
2023/08/13 05:59:33;;;;;;;5.55;3.60;;;;;;;;;;5005634;28;20022;-64
2023/08/13 06:01:58;;;;;;;4.63;3.05;;;;;;;;;;5038328;28;20030;-64
2023/08/13 06:04:26;;;;;;;5.30;3.37;;;;;;;;;;5015876;28;20025;-65
2023/08/13 06:06:51;;;;;;;6.15;3.15;;;;;;;;;;5013913;28;20256;-65
2023/08/13 06:09:18;;;;;;;6.43;2.97;;;;;;;;;;5014121;28;20514;-65
2023/08/13 06:11:43;;;;;;;6.53;3.10;;;;;;;;;;5017796;28;20136;-64
2023/08/13 06:14:09;;;;;;;5.83;3.50;;;;;;;;;;5009537;28;20032;-65
2023/08/13 06:16:34;;;;;;;5.63;3.10;;;;;;;;;;5016307;28;20325;-65
2023/08/13 06:18:59;;;;;;;5.60;3.47;;;;;;;;;;5013086;28;20029;-66
2023/08/13 06:21:30;;;;;;;5.70;3.45;;;;;;;;;;5003957;28;20489;-65
2023/08/13 06:23:55;;;;;;;6.03;3.22;;;;;;;;;;5009339;28;20335;-65
2023/08/13 06:26:21;;;;;;;5.17;3.40;;;;;;;;;;5015521;28;20392;-67
2023/08/13 06:28:46;;;;;;;5.37;2.87;;;;;;;;;;5011994;28;20248;-65
2023/08/13 06:31:11;;;;;;;5.60;3.22;;;;;;;;;;5006027;28;20252;-64
2023/08/13 06:33:39;;;;;;;5.03;3.00;;;;;;;;;;5035415;28;20088;-65
2023/08/13 06:36:04;;;;;;;6.47;3.20;;;;;;;;;;5015267;28;20044;-65
2023/08/13 06:38:31;;;;;;;6.35;3.30;;;;;;;;;;5006595;28;20057;-65
2023/08/13 06:41:03;;;;;;;6.25;3.10;;;;;;;;;;5015820;28;20025;-63
2023/08/13 06:43:28;;;;;;;6.85;2.95;;;;;;;;;;5018031;28;20021;-64
2023/08/13 06:45:54;;;;;;;5.07;3.00;;;;;;;;;;5018035;28;20036;-66
2023/08/13 06:48:19;;;;;;;5.27;3.20;;;;;;;;;;5012404;28;20861;-66
2023/08/13 06:50:48;;;;;;;5.28;3.55;;;;;;;;;;5006658;28;20487;-66
2023/08/13 06:53:16;;;;;;;5.20;3.40;;;;;;;;;;5017693;28;20029;-65
2023/08/13 06:55:43;;;;;;;5.50;3.58;;;;;;;;;;5014410;28;20597;-66
2023/08/13 06:58:08;;;;;;;7.90;3.83;;;;;;;;;;5012386;28;20021;-64
2023/08/13 07:00:37;;;;;;;6.03;3.30;;;;;;;;;;5006019;28;20460;-65
2023/08/13 07:03:02;;;;;;;5.57;3.50;;;;;;;;;;5042899;28;20032;-66
2023/08/13 07:05:28;;;;;;;6.78;3.80;;;;;;;;;;5016545;28;20697;-65
2023/08/13 07:07:53;;;;;;;5.32;3.40;;;;;;;;;;5015274;28;20048;-64
2023/08/13 07:10:21;;;;;;;5.18;3.40;;;;;;;;;;5014313;28;20029;-66
2023/08/13 07:12:48;;;;;;;5.35;3.17;;;;;;;;;;5016635;28;20815;-65
2023/08/13 07:15:15;;;;;;;6.07;3.42;;;;;;;;;;5011759;28;20144;-67
2023/08/13 07:17:41;;;;;;;5.78;3.60;;;;;;;;;;5001110;28;20026;-64
2023/08/13 07:20:10;;;;;;;5.63;3.10;;;;;;;;;;5007583;28;20492;-65
2023/08/13 07:22:37;;;;;;;6.95;3.33;;;;;;;;;;5033926;28;20021;-65
2023/08/13 07:25:03;;;;;;;5.35;3.55;;;;;;;;;;5016465;28;20068;-66
2023/08/13 07:27:28;;;;;;;7.85;3.67;;;;;;;;;;5014434;28;20022;-66
2023/08/13 07:29:54;;;;;;;4.80;3.13;;;;;;;;;;5016281;28;20013;-66
2023/08/13 07:32:19;;;;;;;5.45;3.38;;;;;;;;;;5016891;28;20029;-65
2023/08/13 07:34:47;;;;;;;6.90;4.07;;;;;;;;;;5007440;28;20018;-66
2023/08/13 07:37:12;;;;;;;6.82;4.10;;;;;;;;;;5013676;28;20017;-65
2023/08/13 07:39:38;;;;;;;5.85;3.65;;;;;;;;;;5013749;28;20091;-66
2023/08/13 07:42:03;;;;;;;6.03;3.45;;;;;;;;;;5005083;28;20466;-66
2023/08/13 07:44:29;;;;;;;6.28;3.22;;;;;;;;;;5016008;28;20024;-66
2023/08/13 07:46:58;;;;;;;5.82;3.17;;;;;;;;;;5016774;28;20459;-68
2023/08/13 07:49:24;;;;;;;6.05;3.58;;;;;;;;;;5007285;28;20014;-66
2023/08/13 07:51:52;;;;;;;5.45;3.40;;;;;;;;;;5009521;28;20546;-66
2023/08/13 07:54:21;;;;;;;5.90;3.20;;;;;;;;;;5016051;28;20037;-65
2023/08/13 07:56:48;;;;;;;4.97;3.23;;;;;;;;;;5017018;28;20567;-64
2023/08/13 07:59:16;;;;;;;5.50;3.20;;;;;;;;;;5002444;28;20113;-64
2023/08/13 08:01:42;;;;;;;5.93;3.40;;;;;;;;;;5004491;28;20032;-66
2023/08/13 08:04:09;;;;;;;7.38;3.40;;;;;;;;;;5016606;28;20025;-64
2023/08/13 08:06:37;;;;;;;5.43;3.20;;;;;;;;;;5019212;28;20028;-65
2023/08/13 08:09:05;;;;;;;6.03;3.40;;;;;;;;;;5010824;28;20369;-66
2023/08/13 08:11:31;;;;;;;5.05;3.25;;;;;;;;;;5013924;28;20044;-65
2023/08/13 08:13:58;;;;;;;6.55;3.58;;;;;;;;;;5018829;28;20447;-65
2023/08/13 08:16:23;;;;;;;6.47;3.13;;;;;;;;;;5017002;28;20022;-65
2023/08/13 08:18:51;;;;;;;5.83;3.17;;;;;;;;;;5009753;28;20025;-65
2023/08/13 08:21:16;;;;;;;5.97;3.55;;;;;;;;;;5013225;28;20299;-64
2023/08/13 08:23:42;;;;;;;6.73;3.77;;;;;;;;;;5015513;28;20047;-67
2023/08/13 08:26:09;;;;;;;6.37;4.07;;;;;;;;;;5013677;28;21166;-64
2023/08/13 08:28:35;;;;;;;6.07;3.30;;;;;;;;;;5016765;28;20467;-66
2023/08/13 08:31:02;;;;;;;5.67;3.40;;;;;;;;;;5016515;28;20112;-67
2023/08/13 08:33:28;;;;;;;7.25;3.38;;;;;;;;;;5016408;28;20401;-66
2023/08/13 08:35:53;;;;;;;5.23;3.10;;;;;;;;;;5030224;28;20708;-66
2023/08/13 08:38:18;;;;;;;6.05;3.03;;;;;;;;;;5002700;28;20022;-64
2023/08/13 08:40:46;;;;;;;4.77;2.90;;;;;;;;;;5010227;28;20033;-65
2023/08/13 08:43:12;;;;;;;5.70;3.10;;;;;;;;;;5020382;28;20302;-65
2023/08/13 08:45:38;;;;;;;5.07;2.88;;;;;;;;;;5019457;28;20014;-64
2023/08/13 08:48:06;;;;;;;4.85;3.00;;;;;;;;;;5019657;28;20472;-65
2023/08/13 08:50:32;;;;;;;6.00;2.95;;;;;;;;;;5011671;28;20013;-65
2023/08/13 08:52:57;;;;;;;7.55;2.95;;;;;;;;;;5011807;28;20899;-67
2023/08/13 08:55:23;;;;;;;5.53;3.20;;;;;;;;;;5020337;28;20689;-66
2023/08/13 08:57:49;;;;;;;6.05;2.83;;;;;;;;;;5016337;28;20024;-64
2023/08/13 09:00:14;;;;;;;6.93;2.95;;;;;;;;;;5006309;28;20029;-65
2023/08/13 09:02:43;;;;;;;5.50;2.80;;;;;;;;;;5013580;28;20010;-66
2023/08/13 09:05:08;;;;;;;5.22;3.08;;;;;;;;;;5006235;28;20041;-65
2023/08/13 09:07:34;;;;;;;5.15;2.70;;;;;;;;;;5013817;28;20121;-66
2023/08/13 09:10:02;;;;;;;6.70;3.30;;;;;;;;;;5009800;28;20030;-66
2023/08/13 09:12:36;;;;;;;5.65;2.70;;;;;;;;;;5013503;28;20705;-66
2023/08/13 09:15:13;;;;;;;5.00;2.95;;;;;;;;;;5018569;28;20022;-65
2023/08/13 09:17:38;;;;;;;5.15;3.03;;;;;;;;;;5013101;28;20017;-64
2023/08/13 09:20:17;;;;;;;5.93;2.70;;;;;;;;;;5010359;28;20037;-64
2023/08/13 09:22:46;;;;;;;7.10;3.00;;;;;;;;;;5017699;28;20034;-65
2023/08/13 09:25:12;;;;;;;5.68;2.90;;;;;;;;;;5020486;28;20266;-66
2023/08/13 09:27:38;;;;;;;5.32;3.20;;;;;;;;;;5009119;28;20018;-65
2023/08/13 09:30:03;;;;;;;5.63;3.28;;;;;;;;;;5024169;28;20049;-65
2023/08/13 09:32:31;;;;;;;5.20;3.13;;;;;;;;;;5024618;28;20022;-64
2023/08/13 09:34:57;;;;;;;5.10;3.40;;;;;;;;;;5017461;28;20037;-64
2023/08/13 09:37:25;;;;;;;6.85;3.30;;;;;;;;;;5032112;28;20686;-64
2023/08/13 09:39:51;;;;;;;6.28;3.60;;;;;;;;;;5009757;28;20025;-65
2023/08/13 09:42:21;;;;;;;6.32;3.40;;;;;;;;;;5017687;28;20480;-66
2023/08/13 09:44:47;;;;;;;6.50;3.60;;;;;;;;;;5011074;28;20551;-64
2023/08/13 09:47:17;;;;;;;5.55;3.33;;;;;;;;;;5018151;28;20010;-64
2023/08/13 09:49:42;;;;;;;6.20;3.50;;;;;;;;;;5011061;28;20113;-66
2023/08/13 09:52:09;;;;;;;6.15;3.70;;;;;;;;;;5018283;28;20025;-64
2023/08/13 09:54:40;;;;;;;5.35;3.40;;;;;;;;;;5051397;28;20040;-65
2023/08/13 09:57:08;;;;;;;7.10;3.50;;;;;;;;;;5019289;28;20033;-65
2023/08/13 09:59:36;;;;;;;7.53;3.72;;;;;;;;;;5021435;28;20017;-65
2023/08/13 10:02:06;;;;;;;7.75;3.97;;;;;;;;;;5015345;28;20120;-65
2023/08/13 10:04:33;;;;;;;5.63;3.38;;;;;;;;;;5007960;28;20018;-64
2023/08/13 10:06:59;;;;;;;6.88;3.22;;;;;;;;;;5014966;28;21664;-64
2023/08/13 10:09:27;;;;;;;6.07;3.60;;;;;;;;;;5021377;28;20039;-65
2023/08/13 10:11:53;;;;;;;5.50;3.70;;;;;;;;;;5014033;28;20037;-66
2023/08/13 10:14:18;;;;;;;6.85;3.83;;;;;;;;;;5015688;28;20022;-64
2023/08/13 10:16:46;;;;;;;6.55;3.30;;;;;;;;;;5017149;28;20099;-65
2023/08/13 10:19:14;;;;;;;7.25;3.50;;;;;;;;;;5018777;28;20081;-64
2023/08/13 10:21:40;;;;;;;5.18;3.53;;;;;;;;;;5013680;28;20072;-64
2023/08/13 10:24:08;;;;;;;5.68;3.70;;;;;;;;;;5012334;28;20120;-67
2023/08/13 10:26:36;;;;;;;8.37;5.60;;;;;;;;;;5017990;28;20653;-65
2023/08/13 10:29:17;;;;;;;8.23;4.40;;;;;;;;;;5018864;28;20259;-65
2023/08/13 10:31:53;;;;;;;6.30;3.72;;;;;;;;;;5020180;28;20037;-64
2023/08/13 10:34:18;;;;;;;6.55;3.38;;;;;;;;;;5018872;28;20027;-65
2023/08/13 10:36:44;;;;;;;7.00;3.97;;;;;;;;;;5013029;28;20013;-66
2023/08/13 10:39:28;;;;;;;5.82;3.85;;;;;;;;;;5011890;28;20860;-65
2023/08/13 10:41:54;;;;;;;6.05;3.50;;;;;;;;;;5041829;28;20051;-65
2023/08/13 10:44:27;;;;;;;6.10;3.97;;;;;;;;;;5016522;28;20020;-66
2023/08/13 10:46:53;;;;;;;6.78;3.50;;;;;;;;;;5031580;28;20469;-67
2023/08/13 10:49:19;;;;;;;5.88;3.72;;;;;;;;;;5021283;28;20485;-66
2023/08/13 10:51:47;;;;;;;6.32;3.58;;;;;;;;;;5026123;28;20070;-64
2023/08/13 10:54:15;;;;;;;6.00;3.85;;;;;;;;;;5011842;28;20018;-64
2023/08/13 10:56:46;;;;;;;6.07;3.67;;;;;;;;;;5016242;28;20056;-64
2023/08/13 10:59:11;;;;;;;7.55;3.90;;;;;;;;;;5013736;28;20024;-65
2023/08/13 11:01:57;;;;;;;7.40;3.88;;;;;;;;;;5019788;28;20017;-65
2023/08/13 11:04:22;;;;;;;6.88;4.00;;;;;;;;;;5014453;28;20021;-65
2023/08/13 11:06:50;;;;;;;7.40;4.10;;;;;;;;;;5015472;28;20028;-64
2023/08/13 11:09:16;;;;;;;6.13;4.20;;;;;;;;;;5012404;28;20018;-66
2023/08/13 11:11:42;;;;;;;7.78;4.63;;;;;;;;;;5018233;28;20029;-65
2023/08/13 11:14:09;;;;;;;6.60;4.40;;;;;;;;;;5017284;28;20033;-64
2023/08/13 11:16:34;;;;;;;6.55;4.22;;;;;;;;;;5015291;28;20109;-66
2023/08/13 11:18:59;;;;;;;6.88;4.57;;;;;;;;;;5016496;28;20044;-65
2023/08/13 11:21:25;;;;;;;7.20;4.40;;;;;;;;;;5005694;28;20144;-65
2023/08/13 11:23:51;;;;;;;5.70;4.00;;;;;;;;;;5019571;28;20692;-67
2023/08/13 11:26:16;;;;;;;6.38;4.35;;;;;;;;;;5012536;28;20373;-65
2023/08/13 11:28:44;;;;;;;7.45;4.30;;;;;;;;;;5021779;28;20044;-64
2023/08/13 11:31:09;;;;;;;7.68;4.38;;;;;;;;;;5017117;28;20026;-64
2023/08/13 11:33:34;;;;;;;6.93;4.27;;;;;;;;;;5013085;28;20589;-65
2023/08/13 11:36:02;;;;;;;6.53;4.20;;;;;;;;;;5016309;28;20160;-66
2023/08/13 11:38:31;;;;;;;5.97;4.07;;;;;;;;;;5017305;28;20025;-65
2023/08/13 11:40:56;;;;;;;6.32;4.20;;;;;;;;;;5030827;28;20022;-66
2023/08/13 11:43:22;;;;;;;6.35;3.92;;;;;;;;;;5021423;28;20040;-65
2023/08/13 11:45:48;;;;;;;7.00;4.03;;;;;;;;;;5017016;28;20013;-68
2023/08/13 11:48:15;;;;;;;6.43;4.20;;;;;;;;;;5012921;28;20013;-65
2023/08/13 11:50:41;;;;;;;6.75;4.00;;;;;;;;;;5015743;28;20785;-64
2023/08/13 11:53:10;;;;;;;7.38;4.30;;;;;;;;;;5015261;28;20091;-66
2023/08/13 11:55:39;;;;;;;6.85;4.00;;;;;;;;;;5013022;28;20115;-67
2023/08/13 11:58:04;;;;;;;;;;;;;;;;;;5023116;28;20124;-64
2023/08/13 12:00:35;;;;;;;6.47;4.07;;;;;;;;;;5015320;28;19913;-66
2023/08/13 12:03:00;;;;;;;6.28;4.00;;;;;;;;;;5016589;28;20749;-66
2023/08/13 12:05:26;;;;;;;6.32;3.90;;;;;;;;;;5013316;28;20013;-66
2023/08/13 12:07:52;;;;;;;8.18;4.28;;;;;;;;;;5023455;28;20029;-63
2023/08/13 12:10:17;;;;;;;7.32;4.28;;;;;;;;;;5016904;28;20029;-67
2023/08/13 12:12:45;;;;;;;7.43;4.33;;;;;;;;;;5015434;28;20133;-67
2023/08/13 12:15:10;;;;;;;6.63;3.85;;;;;;;;;;5030648;28;20021;-66
2023/08/13 12:17:36;;;;;;;6.67;4.63;;;;;;;;;;5014839;28;20419;-70
2023/08/13 12:20:01;;;;;;;8.13;3.87;;;;;;;;;;5009585;28;20022;-70
2023/08/13 12:22:28;;;;;;;7.03;3.60;;;;;;;;;;5012188;28;20062;-72
2023/08/13 12:24:53;;;;;;;7.47;3.50;;;;;;;;;;5008318;28;20752;-71
2023/08/13 12:27:21;;;;;;;8.47;3.77;;;;;;;;;;5011248;28;20484;-70
2023/08/13 12:29:48;;;;;;;6.47;4.03;;;;;;;;;;5008392;28;20894;-69
2023/08/13 12:32:14;;;;;;;6.85;4.30;;;;;;;;;;5012514;28;20030;-70
2023/08/13 12:34:39;;;;;;;6.47;4.23;;;;;;;;;;5011456;28;20727;-70
2023/08/13 12:37:04;;;;;;;5.97;3.90;;;;;;;;;;5009538;28;20271;-70
2023/08/13 12:39:30;;;;;;;7.57;4.20;;;;;;;;;;5011216;28;20357;-69
2023/08/13 12:41:55;;;;;;;5.77;3.63;;;;;;;;;;5011458;28;20134;-70
2023/08/13 12:44:23;;;;;;;5.97;3.95;;;;;;;;;;5011070;28;20588;-72
2023/08/13 12:46:48;;;;;;;6.97;3.63;;;;;;;;;;5013051;28;20088;-71
2023/08/13 12:49:13;;;;;;;6.90;3.97;;;;;;;;;;5012360;28;20029;-70
2023/08/13 12:51:39;;;;;;;6.27;3.90;;;;;;;;;;5010501;28;20512;-70
2023/08/13 12:54:04;;;;;;;7.23;4.20;;;;;;;;;;5012148;28;20068;-69
2023/08/13 12:56:29;;;;;;;5.60;3.97;;;;;;;;;;5011685;28;20006;-70
2023/08/13 12:58:54;;;;;;;7.60;3.83;;;;;;;;;;5011972;28;20335;-71
2023/08/13 13:01:20;;;;;;;6.50;4.27;;;;;;;;;;5014816;28;20024;-70
2023/08/13 13:03:45;;;;;;;7.67;4.60;;;;;;;;;;5009031;28;20845;-71
2023/08/13 13:06:10;;;;;;;7.03;4.20;;;;;;;;;;5014280;28;20268;-70
2023/08/13 13:08:38;;;;;;;6.47;4.10;;;;;;;;;;5010389;28;20030;-71
2023/08/13 13:11:05;;;;;;;6.78;4.43;;;;;;;;;;5013217;28;20256;-73
2023/08/13 13:13:31;;;;;;;8.07;4.55;;;;;;;;;;5010727;28;20461;-72
2023/08/13 13:15:57;;;;;;;7.32;4.50;;;;;;;;;;5011735;28;20113;-72
2023/08/13 13:18:22;;;;;;;6.47;4.67;;;;;;;;;;5009761;28;20025;-73
2023/08/13 13:20:49;;;;;;;6.70;4.37;;;;;;;;;;5014669;28;20045;-70
2023/08/13 13:23:15;;;;;;;7.10;4.32;;;;;;;;;;5011570;28;20429;-72
2023/08/13 13:25:40;;;;;;;5.87;4.37;;;;;;;;;;5013238;28;20571;-71
2023/08/13 13:28:05;;;;;;;8.67;4.37;;;;;;;;;;5014877;28;20071;-71
2023/08/13 13:30:33;;;;;;;6.90;4.20;;;;;;;;;;5015205;28;20330;-68
2023/08/13 13:32:59;;;;;;;7.43;4.15;;;;;;;;;;5013544;28;20371;-72
2023/08/13 13:35:25;;;;;;;7.28;4.75;;;;;;;;;;5016923;28;20032;-71
2023/08/13 13:37:53;;;;;;;7.13;4.45;;;;;;;;;;5012478;28;20470;-71
2023/08/13 13:40:18;;;;;;;7.10;4.28;;;;;;;;;;5016261;28;20095;-72
2023/08/13 13:42:43;;;;;;;7.32;4.05;;;;;;;;;;5013931;28;20023;-72
2023/08/13 13:45:09;;;;;;;6.95;4.30;;;;;;;;;;5014503;28;20044;-70
2023/08/13 13:47:34;;;;;;;6.97;4.13;;;;;;;;;;5015713;28;20530;-72
2023/08/13 13:49:59;;;;;;;6.10;4.20;;;;;;;;;;5016140;28;20023;-71
2023/08/13 13:52:27;;;;;;;7.27;4.00;;;;;;;;;;5015360;28;20532;-73
2023/08/13 13:54:55;;;;;;;5.95;3.85;;;;;;;;;;5015592;28;20017;-73
2023/08/13 13:57:24;;;;;;;6.32;3.80;;;;;;;;;;5016579;28;20813;-72
2023/08/13 13:59:49;;;;;;;6.10;4.10;;;;;;;;;;5013931;28;20013;-70
2023/08/13 14:02:15;;;;;;;6.28;3.50;;;;;;;;;;5015787;28;20052;-71
2023/08/13 14:04:40;;;;;;;6.15;3.90;;;;;;;;;;5015608;28;20136;-71
2023/08/13 14:07:05;;;;;;;7.87;3.93;;;;;;;;;;5015459;28;20021;-72
2023/08/13 14:09:33;;;;;;;6.53;3.67;;;;;;;;;;5015441;28;20541;-73
2023/08/13 14:11:58;;;;;;;5.93;4.00;;;;;;;;;;5016308;28;20879;-71
2023/08/13 14:14:26;;;;;;;7.97;4.25;;;;;;;;;;5019639;28;20113;-70
2023/08/13 14:16:51;;;;;;;7.82;4.10;;;;;;;;;;5018454;28;20021;-71
2023/08/13 14:19:17;;;;;;;6.60;4.00;;;;;;;;;;5016451;28;20547;-72
2023/08/13 14:21:42;;;;;;;9.05;4.22;;;;;;;;;;5012164;28;20353;-72
2023/08/13 14:24:07;;;;;;;6.70;4.27;;;;;;;;;;5015190;28;20052;-71
2023/08/13 14:26:33;;;;;;;8.60;4.00;;;;;;;;;;5012961;28;20783;-73
2023/08/13 14:28:58;;;;;;;6.90;4.00;;;;;;;;;;5008978;28;20026;-72
2023/08/13 14:31:25;;;;;;;8.67;4.03;;;;;;;;;;5008753;28;20367;-69
2023/08/13 14:33:51;;;;;;;5.85;3.70;;;;;;;;;;5009763;28;20321;-71
2023/08/13 14:36:16;;;;;;;6.03;4.23;;;;;;;;;;5012287;28;20068;-71
2023/08/13 14:38:41;;;;;;;7.60;3.80;;;;;;;;;;5015097;28;20017;-70